createdAt,value
2022-11-08T00:01:47.368Z,6.50
2022-11-08T00:08:10.460Z,5.60
2022-11-08T00:14:34.836Z,6.00
2022-11-08T00:20:59.138Z,6.90
2022-11-08T00:27:23.487Z,5.90
2022-11-08T00:33:47.703Z,5.60
2022-11-08T00:40:12.085Z,6.00
2022-11-08T00:46:36.490Z,5.70
2022-11-08T00:53:00.800Z,5.70
2022-11-08T00:59:25.216Z,5.30
2022-11-08T01:05:49.564Z,5.50
2022-11-08T01:12:13.942Z,5.40
2022-11-08T01:18:38.398Z,5.30
2022-11-08T01:25:02.754Z,6.10
2022-11-08T01:31:27.214Z,6.40
2022-11-08T01:37:51.488Z,6.60
2022-11-08T01:44:21.684Z,5.60
2022-11-08T01:50:48.536Z,4.50
2022-11-08T01:56:52.649Z,6.50
2022-11-08T02:03:16.941Z,4.40
2022-11-08T02:09:41.270Z,4.60
2022-11-08T02:16:05.677Z,4.90
2022-11-08T02:22:45.279Z,5.80
2022-11-08T02:29:09.547Z,4.90
2022-11-08T02:35:34.031Z,4.70
2022-11-08T02:41:58.410Z,5.20
2022-11-08T02:48:22.845Z,5.00
2022-11-08T02:54:47.234Z,5.10
2022-11-08T03:01:11.811Z,4.90
2022-11-08T03:07:36.142Z,4.60
2022-11-08T03:14:00.469Z,4.30
2022-11-08T03:20:29.597Z,4.60
2022-11-08T03:26:56.967Z,5.60
2022-11-08T03:33:21.243Z,5.20
2022-11-08T03:39:38.162Z,4.80
2022-11-08T03:46:02.530Z,5.20
2022-11-08T03:52:26.865Z,5.50
2022-11-08T03:58:51.051Z,4.90
2022-11-08T04:05:15.538Z,3.90
2022-11-08T04:11:38.396Z,5.50
2022-11-08T04:18:01.257Z,5.00
2022-11-08T04:24:25.609Z,5.70
2022-11-08T04:30:50.138Z,5.40
2022-11-08T04:37:14.430Z,4.80
2022-11-08T04:43:38.842Z,5.70
2022-11-08T04:50:03.207Z,5.00
2022-11-08T04:56:27.600Z,6.40
2022-11-08T05:02:51.175Z,4.70
2022-11-08T05:09:15.578Z,5.40
2022-11-08T05:15:39.820Z,4.50
2022-11-08T05:22:02.775Z,5.10
2022-11-08T05:28:27.308Z,5.10
2022-11-08T05:34:51.598Z,5.20
2022-11-08T05:41:15.957Z,5.00
2022-11-08T05:47:40.455Z,3.80
2022-11-08T05:54:04.770Z,4.20
2022-11-08T06:00:12.016Z,6.70
2022-11-08T06:06:16.008Z,4.40
2022-11-08T06:12:40.315Z,4.70
2022-11-08T06:18:47.922Z,5.00
2022-11-08T06:31:16.356Z,5.90
2022-11-08T06:37:40.779Z,4.10
2022-11-08T06:44:05.212Z,4.10
2022-11-08T06:50:29.512Z,3.80
2022-11-08T06:56:53.813Z,5.10
2022-11-08T07:03:18.379Z,4.80
2022-11-08T07:09:35.626Z,4.40
2022-11-08T07:15:59.995Z,5.20
2022-11-08T07:22:22.895Z,7.30
2022-11-08T07:28:47.287Z,7.80
2022-11-08T07:35:11.695Z,4.60
2022-11-08T07:41:36.346Z,5.50
2022-11-08T07:48:00.724Z,9.80
2022-11-08T07:54:25.025Z,7.40
2022-11-08T08:00:49.466Z,8.80
2022-11-08T08:07:13.843Z,7.00
2022-11-08T08:13:38.121Z,6.00
2022-11-08T08:20:02.701Z,6.70
2022-11-08T08:26:27.412Z,5.70
2022-11-08T08:33:08.452Z,4.70
2022-11-08T08:39:36.128Z,4.10
2022-11-08T08:46:00.533Z,3.90
2022-11-08T08:52:24.963Z,5.10
2022-11-08T09:05:33.645Z,6.80
2022-11-08T09:11:58.037Z,4.70
2022-11-08T09:18:22.586Z,6.20
2022-11-08T09:24:47.190Z,4.60
2022-11-08T09:31:11.669Z,7.90
2022-11-08T09:37:36.094Z,4.10
2022-11-08T09:44:12.196Z,7.10
2022-11-08T09:50:45.106Z,3.30
2022-11-08T09:57:09.406Z,4.70
2022-11-08T10:03:33.709Z,5.30
2022-11-08T10:09:58.042Z,9.80
2022-11-08T10:16:22.448Z,5.20
2022-11-08T10:22:58.656Z,4.60
2022-11-08T10:29:23.049Z,5.90
2022-11-08T10:36:05.895Z,6.10
2022-11-08T10:42:34.717Z,6.90
2022-11-08T10:48:59.136Z,5.80
2022-11-08T10:55:28.155Z,5.20
2022-11-08T11:01:52.670Z,4.70
2022-11-08T11:08:17.353Z,5.80
2022-11-08T11:14:57.186Z,5.30
2022-11-08T11:21:22.191Z,6.60
2022-11-08T11:27:47.306Z,4.70
2022-11-08T11:34:14.673Z,4.00
2022-11-08T11:40:44.963Z,4.90
2022-11-08T11:47:24.445Z,4.80
2022-11-08T11:53:57.465Z,5.40
2022-11-08T12:00:21.816Z,3.70
2022-11-08T12:07:04.968Z,3.90
2022-11-08T12:13:35.954Z,4.10
2022-11-08T12:19:58.832Z,3.80
2022-11-08T12:26:35.434Z,2.70
2022-11-08T12:33:18.181Z,4.90
2022-11-08T12:40:03.863Z,2.50
2022-11-08T12:46:28.528Z,3.20
2022-11-08T12:52:57.737Z,3.40
2022-11-08T12:59:37.571Z,4.20
2022-11-08T13:06:04.786Z,3.20
2022-11-08T13:12:41.090Z,2.50
2022-11-08T13:19:14.719Z,3.50
2022-11-08T13:25:39.124Z,3.00
2022-11-08T13:32:03.532Z,3.00
2022-11-08T13:38:33.736Z,3.80
2022-11-08T13:44:56.222Z,2.50
2022-11-08T13:51:29.905Z,2.30
2022-11-08T13:57:57.505Z,4.90
2022-11-08T14:04:29.748Z,3.20
2022-11-08T14:11:06.179Z,2.60
2022-11-08T14:17:33.351Z,3.70
2022-11-08T14:24:00.650Z,3.30
2022-11-08T14:30:25.007Z,3.80
2022-11-08T14:36:56.294Z,3.30
2022-11-08T14:43:21.078Z,4.10
2022-11-08T14:49:54.615Z,3.40
2022-11-08T14:56:19.181Z,3.40
2022-11-08T15:02:43.460Z,2.80
2022-11-08T15:09:10.371Z,3.10
2022-11-08T15:15:34.752Z,5.50
2022-11-08T15:22:01.951Z,3.40
2022-11-08T15:28:26.239Z,4.60
2022-11-08T15:34:59.609Z,3.40
2022-11-08T15:41:29.555Z,4.10
2022-11-08T15:47:51.993Z,6.10
2022-11-08T15:54:16.279Z,6.40
2022-11-08T16:00:40.319Z,4.60
2022-11-08T16:07:04.734Z,5.00
2022-11-08T16:13:29.236Z,4.50
2022-11-08T16:19:56.328Z,4.00
2022-11-08T16:26:20.603Z,5.90
2022-11-08T16:32:45.026Z,3.30
2022-11-08T16:39:09.328Z,5.70
2022-11-08T16:46:03.081Z,6.70
2022-11-08T16:52:18.038Z,4.80
2022-11-08T16:58:42.326Z,4.60
2022-11-08T17:05:06.643Z,5.80
2022-11-08T17:11:31.072Z,4.10
2022-11-08T17:17:55.361Z,7.40
2022-11-08T17:24:21.936Z,4.00
2022-11-08T17:30:46.960Z,5.10
2022-11-08T17:37:11.379Z,5.20
2022-11-08T17:43:35.811Z,5.10
2022-11-08T17:50:00.242Z,6.00
2022-11-08T17:56:24.378Z,5.00
2022-11-08T18:02:48.812Z,4.90
2022-11-08T18:09:13.343Z,4.90
2022-11-08T18:15:37.633Z,4.50
2022-11-08T18:22:02.007Z,4.70
2022-11-08T18:28:26.375Z,5.40
2022-11-08T18:34:50.788Z,5.60
2022-11-08T18:41:15.108Z,6.10
2022-11-08T18:47:39.392Z,8.60
2022-11-08T18:54:03.691Z,5.90
2022-11-08T19:00:28.224Z,7.20
2022-11-08T19:06:54.826Z,6.10
2022-11-08T19:13:08.733Z,8.00
2022-11-08T19:19:33.085Z,6.80
2022-11-08T19:25:56.444Z,7.00
2022-11-08T19:32:21.112Z,6.90
2022-11-08T19:38:45.626Z,6.30
2022-11-08T19:45:10.007Z,6.50
2022-11-08T19:51:34.341Z,7.20
2022-11-08T19:57:58.614Z,7.90
2022-11-08T20:04:02.853Z,8.50
2022-11-08T20:10:27.118Z,7.30
2022-11-08T20:16:54.110Z,8.90
2022-11-08T20:23:18.660Z,7.80
2022-11-08T20:29:32.147Z,7.70
2022-11-08T20:35:56.555Z,8.30
2022-11-08T20:42:20.832Z,7.70
2022-11-08T20:48:45.157Z,7.60
2022-11-08T20:55:09.474Z,7.90
2022-11-08T21:01:36.587Z,8.50
2022-11-08T21:08:05.573Z,8.60
2022-11-08T21:14:37.996Z,9.70
2022-11-08T21:21:02.496Z,9.80
2022-11-08T21:27:29.704Z,7.80
2022-11-08T21:33:54.157Z,8.60
2022-11-08T21:40:18.489Z,10.20
2022-11-08T21:46:38.927Z,9.70
2022-11-08T21:53:03.313Z,8.50
2022-11-08T21:59:27.619Z,9.00
2022-11-08T22:05:52.045Z,9.30
2022-11-08T22:12:16.990Z,8.10
2022-11-08T22:25:25.572Z,8.10
2022-11-08T22:31:52.737Z,9.90
2022-11-08T22:38:17.385Z,10.20
2022-11-08T22:44:41.900Z,8.70
2022-11-08T22:51:06.432Z,7.80
2022-11-08T22:57:30.799Z,8.20
2022-11-08T23:03:55.223Z,8.90
2022-11-08T23:10:19.647Z,9.20
2022-11-08T23:16:53.433Z,8.60
2022-11-08T23:23:16.597Z,9.60
2022-11-08T23:29:40.021Z,9.10
2022-11-08T23:36:04.393Z,8.90
2022-11-08T23:42:27.258Z,10.40
2022-11-08T23:48:51.664Z,8.40
2022-11-08T23:55:16.025Z,9.10
